Belpre, Kansas
Current Conditions -  °F | °C
As of 11:35 PM on Wednesday 26 Nov 2014 (Local Time) from KPTT Reporting Station
Scattered Clouds Scattered Clouds  
Wind Chill: 28°   Ceiling: Unl
Heat Index: 28°   Visibility: 10mi
Dew Point: 19°   Wind: 0mph
Humidity: 69%   Direction: NA
Pressure: 30.45"   Gusts: NA
Location:  37.95°N, 99.1°W
Report Text: KPTT 270535Z AUTO 00000KT 10SM SCT110 M02/M07 A3045 RMK AO2
Loading
Personal Weather Stations






























Interactive Weather Map New forecast layout! Learn more

10-Day Weather Forecast

Advertisements
Track Severe Weather on mobile